Time;durP1;ratioP1;P1;durP2;ratioP2;P2;SDS_P1;SDS_P2;PMS_P1;PMS_P2;Temp;Humidity;BMP_temperature;BMP_pressure;BME280_temperature;BME280_humidity;BME280_pressure;Samples;Min_cycle;Max_cycle;Signal;HPM_P1;HPM_P2
2021/08/06 00:01:16;;;;;;;8.90;5.03;;;;;;;19.92;63.59;100181.69;4971452;28;20417;-47
2021/08/06 00:03:42;;;;;;;5.80;4.65;;;;;;;19.97;62.55;100180.59;4968570;28;20501;-46
2021/08/06 00:06:07;;;;;;;6.55;4.50;;;;;;;20.06;62.83;100179.41;4981235;28;20546;-47
2021/08/06 00:08:34;;;;;;;5.40;4.10;;;;;;;20.08;63.00;100178.41;4976652;28;20035;-47
2021/08/06 00:10:59;;;;;;;5.68;4.25;;;;;;;20.09;62.16;100182.78;4967527;28;20556;-52
2021/08/06 00:13:25;;;;;;;5.75;3.97;;;;;;;20.15;61.17;100181.69;4975453;28;20374;-50
2021/08/06 00:15:51;;;;;;;8.10;4.40;;;;;;;20.17;62.17;100183.38;4970515;28;20030;-49
2021/08/06 00:18:16;;;;;;;6.13;4.13;;;;;;;20.18;61.21;100189.53;4972144;28;20042;-50
2021/08/06 00:20:42;;;;;;;7.28;4.38;;;;;;;20.17;62.99;100185.16;4974269;28;20062;-46
2021/08/06 00:23:07;;;;;;;7.55;4.05;;;;;;;20.16;63.37;100189.59;4967625;28;20113;-46
2021/08/06 00:25:33;;;;;;;9.73;4.30;;;;;;;20.12;64.77;100185.34;4977411;28;20076;-48
2021/08/06 00:27:59;;;;;;;7.10;4.25;;;;;;;20.00;66.40;100179.63;4964608;28;21453;-48
2021/08/06 00:30:26;;;;;;;6.20;3.95;;;;;;;19.85;66.78;100188.97;4970762;28;20049;-48
2021/08/06 00:32:51;;;;;;;7.28;4.15;;;;;;;19.74;67.10;100173.47;4977185;28;20053;-51
2021/08/06 00:35:16;;;;;;;6.20;4.40;;;;;;;19.66;69.34;100179.94;4975263;28;20097;-51
2021/08/06 00:37:42;;;;;;;8.40;4.60;;;;;;;19.51;71.00;100167.28;4980450;28;20122;-48
2021/08/06 00:40:08;;;;;;;6.20;4.25;;;;;;;19.39;68.64;100168.53;4969924;28;20129;-47
2021/08/06 00:42:33;;;;;;;6.32;4.47;;;;;;;19.36;71.02;100173.88;4975127;28;20030;-50
2021/08/06 00:44:58;;;;;;;5.43;4.30;;;;;;;19.26;71.98;100169.84;4969541;28;20117;-50
2021/08/06 00:47:24;;;;;;;8.63;4.35;;;;;;;19.18;70.66;100164.81;4975332;28;20081;-49
2021/08/06 00:49:50;;;;;;;6.30;4.38;;;;;;;19.13;70.59;100164.09;4976558;28;20490;-47
2021/08/06 00:52:15;;;;;;;7.60;4.40;;;;;;;19.07;71.92;100163.44;4969740;28;20533;-49
2021/08/06 00:54:41;;;;;;;6.90;4.55;;;;;;;19.04;71.75;100165.25;4978250;28;20092;-52
2021/08/06 00:57:10;;;;;;;6.03;4.10;;;;;;;19.07;71.72;100161.66;4972098;28;20113;-47
2021/08/06 00:59:36;;;;;;;5.50;4.15;;;;;;;19.00;71.66;100162.75;4990494;28;20876;-48
2021/08/06 01:02:17;;;;;;;8.55;4.28;;;;;;;18.98;72.12;100162.81;4971616;28;20030;-48
2021/08/06 01:04:51;;;;;;;7.40;4.35;;;;;;;19.02;72.35;100169.72;4973820;28;20455;-47
2021/08/06 01:07:22;;;;;;;;;;;;;;;18.89;74.48;100170.16;4988190;28;20038;-46
2021/08/06 01:09:56;;;;;;;6.18;4.20;;;;;;;18.84;73.79;100172.09;4969690;28;19958;-49
2021/08/06 01:12:33;;;;;;;8.93;4.13;;;;;;;18.78;74.14;100178.44;4969832;28;20027;-49
2021/08/06 01:15:01;;;;;;;7.60;5.05;;;;;;;18.59;75.87;100175.50;4970575;28;20416;-46
2021/08/06 01:17:30;;;;;;;7.53;5.05;;;;;;;18.46;76.87;100167.94;4966982;28;20449;-47
2021/08/06 01:20:09;;;;;;;7.47;5.40;;;;;;;18.40;78.11;100168.13;4974445;28;20034;-47
2021/08/06 01:22:46;;;;;;;9.10;5.47;;;;;;;18.31;77.75;100160.47;4991342;28;20022;-46
2021/08/06 01:25:14;;;;;;;7.95;5.45;;;;;;;18.26;78.37;100163.25;4972830;28;20535;-48
2021/08/06 01:27:43;;;;;;;7.78;5.65;;;;;;;18.16;78.89;100159.16;4976998;28;20053;-45
2021/08/06 01:30:10;;;;;;;7.13;5.10;;;;;;;18.10;78.77;100160.22;4969554;28;20462;-47
2021/08/06 01:32:36;;;;;;;9.38;5.53;;;;;;;18.06;79.70;100155.03;4974890;28;20058;-47
2021/08/06 01:35:03;;;;;;;9.55;5.72;;;;;;;18.08;79.36;100158.50;4972924;28;20048;-47
2021/08/06 01:37:28;;;;;;;7.13;5.60;;;;;;;18.08;79.81;100153.25;4969600;28;20034;-46
2021/08/06 01:39:54;;;;;;;8.07;5.57;;;;;;;18.05;79.89;100142.78;4972760;28;20089;-48
2021/08/06 01:42:36;;;;;;;9.68;5.95;;;;;;;18.04;80.33;100139.28;4968751;28;20041;-47
2021/08/06 01:45:03;;;;;;;8.95;4.80;;;;;;;18.00;79.19;100135.00;4988728;28;20110;-47
2021/08/06 01:47:49;;;;;;;6.80;4.70;;;;;;;17.98;79.34;100134.19;4969021;28;20026;-45
2021/08/06 01:50:22;;;;;;;7.18;4.90;;;;;;;18.01;79.86;100136.72;4975531;28;20035;-47
2021/08/06 01:52:50;;;;;;;7.47;5.07;;;;;;;18.02;79.63;100132.31;4971491;28;20652;-47
2021/08/06 01:55:17;;;;;;;7.90;5.10;;;;;;;18.04;79.54;100136.66;4973100;28;20457;-47
2021/08/06 01:57:44;;;;;;;7.22;4.93;;;;;;;17.99;79.46;100129.78;4969444;28;20031;-49
2021/08/06 02:00:10;;;;;;;8.25;5.20;;;;;;;17.88;79.82;100126.56;4968792;28;20366;-52
2021/08/06 02:02:39;;;;;;;7.78;4.90;;;;;;;17.93;79.50;100124.69;4975997;28;20022;-47
2021/08/06 02:05:05;;;;;;;8.00;5.18;;;;;;;17.96;79.37;100124.56;4969307;28;20054;-47
2021/08/06 02:07:31;;;;;;;8.25;5.20;;;;;;;18.00;79.13;100116.53;4984711;28;20512;-46
2021/08/06 02:09:56;;;;;;;7.88;5.35;;;;;;;18.05;79.56;100121.69;4985882;28;20421;-47
2021/08/06 02:12:22;;;;;;;7.75;5.50;;;;;;;18.04;79.08;100115.53;4974907;28;20545;-47
2021/08/06 02:14:48;;;;;;;7.32;5.07;;;;;;;18.11;78.80;100119.72;4975374;28;20026;-47
2021/08/06 02:17:14;;;;;;;8.93;5.20;;;;;;;18.18;79.04;100115.13;4972838;28;20490;-46
2021/08/06 02:19:43;;;;;;;7.40;5.05;;;;;;;18.18;78.28;100112.47;4988503;28;20463;-49
2021/08/06 02:22:09;;;;;;;7.40;4.80;;;;;;;18.20;78.59;100118.59;4967087;28;20359;-48
2021/08/06 02:24:34;;;;;;;10.23;5.10;;;;;;;18.23;78.48;100111.47;4973568;28;20596;-50
2021/08/06 02:27:00;;;;;;;7.32;5.00;;;;;;;18.27;77.68;100111.34;4969134;28;20046;-48
2021/08/06 02:29:28;;;;;;;7.95;5.15;;;;;;;18.24;78.56;100112.28;4990391;28;20439;-48
2021/08/06 02:31:56;;;;;;;8.50;5.00;;;;;;;18.15;78.96;100107.31;4962514;28;20591;-47
2021/08/06 02:34:22;;;;;;;9.52;4.90;;;;;;;18.26;78.61;100107.84;4985031;28;20398;-46
2021/08/06 02:36:47;;;;;;;7.70;4.40;;;;;;;18.29;78.41;100106.91;4975409;28;20102;-46
2021/08/06 02:39:27;;;;;;;6.00;4.25;;;;;;;18.28;78.74;100113.09;4969022;28;20048;-48
2021/08/06 02:41:55;;;;;;;7.55;4.30;;;;;;;18.29;78.67;100110.41;4971235;28;20045;-46
2021/08/06 02:44:21;;;;;;;6.65;4.30;;;;;;;18.25;78.78;100111.38;4971669;28;20026;-46
2021/08/06 02:46:46;;;;;;;5.65;4.00;;;;;;;18.27;79.12;100116.63;4972837;28;20132;-49
2021/08/06 02:49:12;;;;;;;7.47;4.15;;;;;;;18.14;79.41;100108.22;4975402;28;20496;-47
2021/08/06 02:51:37;;;;;;;5.13;3.50;;;;;;;18.26;78.89;100107.84;4969846;28;20490;-49
2021/08/06 02:54:04;;;;;;;6.38;3.35;;;;;;;18.21;78.49;100117.69;4970769;28;20286;-49
2021/08/06 02:56:29;;;;;;;5.53;3.83;;;;;;;18.22;79.13;100117.66;4972393;28;20056;-47
2021/08/06 02:58:54;;;;;;;5.75;3.70;;;;;;;18.16;79.30;100115.19;4970375;28;20954;-48
2021/08/06 03:01:20;;;;;;;5.70;3.80;;;;;;;18.19;79.37;100117.72;4966196;28;20022;-47
2021/08/06 03:03:45;;;;;;;6.70;3.67;;;;;;;18.23;79.18;100119.38;4969327;28;20541;-48
2021/08/06 03:06:11;;;;;;;5.88;3.63;;;;;;;18.18;79.37;100115.13;4967234;28;20077;-48
2021/08/06 03:08:36;;;;;;;6.47;3.90;;;;;;;18.27;79.33;100111.34;4974529;28;20050;-49
2021/08/06 03:11:02;;;;;;;5.30;3.90;;;;;;;18.28;79.57;100115.72;4971164;28;20383;-47
2021/08/06 03:13:27;;;;;;;6.63;3.80;;;;;;;18.26;79.34;100110.50;4969604;28;20034;-49
2021/08/06 03:15:52;;;;;;;4.55;3.25;;;;;;;18.30;79.16;100109.47;4965311;28;20031;-49
2021/08/06 03:18:18;;;;;;;5.35;3.53;;;;;;;18.31;78.79;100105.06;4971719;28;21066;-47
2021/08/06 03:20:43;;;;;;;4.68;3.40;;;;;;;18.33;78.64;100105.88;4973627;28;20462;-48
2021/08/06 03:23:09;;;;;;;5.20;3.20;;;;;;;18.36;78.55;100109.28;4966644;28;20490;-51
2021/08/06 03:25:34;;;;;;;5.30;3.50;;;;;;;18.34;79.04;100100.56;4974971;28;20529;-49
2021/08/06 03:27:59;;;;;;;6.05;3.40;;;;;;;18.36;78.50;100103.19;4970119;28;20046;-48
2021/08/06 03:30:25;;;;;;;4.63;3.30;;;;;;;18.35;78.49;100102.31;4974054;28;20494;-47
2021/08/06 03:32:50;;;;;;;4.00;2.97;;;;;;;18.35;78.28;100097.03;4962999;28;20037;-48
2021/08/06 03:35:16;;;;;;;4.03;2.95;;;;;;;18.34;78.10;100099.72;4971262;28;20506;-49
2021/08/06 03:37:43;;;;;;;4.30;3.22;;;;;;;18.35;78.22;100097.03;4971046;28;20054;-47
2021/08/06 03:40:10;;;;;;;5.53;3.60;;;;;;;18.33;78.46;100098.84;4960598;28;20041;-49
2021/08/06 03:42:35;;;;;;;5.80;3.47;;;;;;;18.32;78.42;100097.09;4975768;28;20030;-47
2021/08/06 03:45:00;;;;;;;4.95;3.70;;;;;;;18.30;78.82;100101.56;4967129;28;20080;-48
2021/08/06 03:47:26;;;;;;;6.18;4.13;;;;;;;18.23;79.33;100098.28;4973846;28;20061;-46
2021/08/06 03:49:51;;;;;;;6.10;4.18;;;;;;;18.20;79.41;100100.97;4975924;28;20029;-46
2021/08/06 03:52:18;;;;;;;6.60;4.28;;;;;;;18.13;79.67;100102.06;4975798;28;20042;-46
2021/08/06 03:54:43;;;;;;;6.85;4.90;;;;;;;18.08;80.31;100103.13;4975408;28;20038;-45
2021/08/06 03:57:09;;;;;;;8.75;4.97;;;;;;;18.03;80.70;100108.53;4974175;28;20030;-50
2021/08/06 03:59:34;;;;;;;6.95;5.35;;;;;;;18.02;80.47;100101.53;4977062;28;20065;-48
2021/08/06 04:01:59;;;;;;;7.82;5.45;;;;;;;17.99;80.76;100103.41;4976583;28;20554;-48
2021/08/06 04:04:25;;;;;;;8.63;6.22;;;;;;;18.00;80.52;100100.69;4973562;28;20478;-47
2021/08/06 04:06:50;;;;;;;9.65;6.68;;;;;;;17.96;80.56;100103.47;4981285;28;20030;-47
2021/08/06 04:09:16;;;;;;;12.15;6.97;;;;;;;17.98;80.31;100109.59;4971411;28;20030;-47
2021/08/06 04:11:42;;;;;;;10.30;6.88;;;;;;;17.94;80.49;100115.84;4971050;28;20370;-46
2021/08/06 04:14:07;;;;;;;11.07;7.30;;;;;;;17.94;80.14;100114.06;4972444;28;20026;-46
2021/08/06 04:16:33;;;;;;;10.43;7.13;;;;;;;17.94;80.36;100114.06;4973986;28;20453;-46
2021/08/06 04:18:58;;;;;;;10.68;7.47;;;;;;;18.04;79.67;100117.31;4967872;28;20033;-47
2021/08/06 04:21:23;;;;;;;9.95;7.25;;;;;;;18.06;80.03;100118.97;4973499;28;20031;-48
2021/08/06 04:23:49;;;;;;;11.57;7.50;;;;;;;18.09;79.42;100116.28;4976270;28;20117;-46
2021/08/06 04:26:14;;;;;;;9.98;7.15;;;;;;;18.09;79.81;100121.56;4975585;28;20130;-47
2021/08/06 04:28:39;;;;;;;9.93;7.03;;;;;;;18.10;79.91;100119.78;4978794;28;20117;-50
2021/08/06 04:31:05;;;;;;;12.13;6.60;;;;;;;18.15;79.22;100117.88;4977642;28;20042;-51
2021/08/06 04:33:31;;;;;;;9.57;5.97;;;;;;;18.15;79.24;100117.88;4977319;28;20031;-47
2021/08/06 04:35:57;;;;;;;8.13;6.20;;;;;;;18.16;78.97;100122.22;4970155;28;20034;-48
2021/08/06 04:38:22;;;;;;;11.45;6.35;;;;;;;18.14;78.93;100124.03;4973480;28;20490;-49
2021/08/06 04:40:48;;;;;;;10.00;6.55;;;;;;;18.08;78.31;100114.53;4976666;28;20113;-49
2021/08/06 04:43:13;;;;;;;7.72;5.97;;;;;;;18.11;78.59;100114.44;4976115;28;20607;-49
2021/08/06 04:45:39;;;;;;;10.93;6.55;;;;;;;18.13;78.37;100110.00;4977445;28;20082;-50
2021/08/06 04:48:05;;;;;;;10.20;6.57;;;;;;;18.15;78.61;100115.22;4975348;28;20035;-47
2021/08/06 04:50:30;;;;;;;9.70;6.40;;;;;;;18.09;79.19;100118.91;4978388;28;20033;-47
2021/08/06 04:52:57;;;;;;;10.85;7.10;;;;;;;18.06;79.37;100112.84;4970265;28;20494;-51
2021/08/06 04:55:23;;;;;;;12.57;6.88;;;;;;;18.04;78.91;100118.19;4974903;28;20477;-49
2021/08/06 04:57:48;;;;;;;10.68;6.82;;;;;;;18.08;78.96;100121.59;4971187;28;20034;-50
2021/08/06 05:00:14;;;;;;;11.77;7.20;;;;;;;18.08;79.27;100125.09;4972857;28;20053;-52
2021/08/06 05:02:39;;;;;;;9.50;7.40;;;;;;;18.07;79.05;100125.13;4976205;28;20038;-50
2021/08/06 05:05:05;;;;;;;11.73;7.00;;;;;;;18.11;78.75;100132.06;4975737;28;20390;-52
2021/08/06 05:07:30;;;;;;;11.35;7.07;;;;;;;18.14;78.23;100127.56;4972197;28;20520;-47
2021/08/06 05:09:56;;;;;;;10.10;7.10;;;;;;;18.18;78.27;100128.31;4964304;28;20771;-47
2021/08/06 05:12:22;;;;;;;10.25;6.65;;;;;;;18.18;77.80;100116.00;4975858;28;20062;-50
2021/08/06 05:14:47;;;;;;;9.60;6.68;;;;;;;18.21;77.99;100115.03;4982467;28;20576;-50
2021/08/06 05:17:14;;;;;;;10.60;6.97;;;;;;;18.22;78.83;100116.78;4971738;28;20030;-47
2021/08/06 05:19:39;;;;;;;10.13;7.13;;;;;;;18.27;78.43;100117.50;4975860;28;20057;-47
2021/08/06 05:22:05;;;;;;;11.52;7.88;;;;;;;18.24;78.47;100107.88;4974165;28;20035;-48
2021/08/06 05:24:30;;;;;;;11.93;7.63;;;;;;;18.27;78.15;100121.91;4977099;28;20018;-46
2021/08/06 05:26:56;;;;;;;10.57;7.30;;;;;;;18.30;77.60;100111.28;4972707;28;20054;-46
2021/08/06 05:29:21;;;;;;;12.52;7.07;;;;;;;18.30;77.23;100120.03;4974052;28;20263;-49
2021/08/06 05:31:47;;;;;;;10.88;7.28;;;;;;;18.31;77.84;100110.34;4976950;28;20041;-47
2021/08/06 05:34:12;;;;;;;12.00;6.90;;;;;;;18.42;77.02;100124.94;4977581;28;20038;-47
2021/08/06 05:36:37;;;;;;;9.65;6.38;;;;;;;18.58;76.16;100126.25;4987182;28;20109;-48
2021/08/06 05:39:03;;;;;;;11.13;5.60;;;;;;;18.80;75.30;100126.41;4966989;28;20030;-47
2021/08/06 05:41:28;;;;;;;9.60;6.10;;;;;;;18.88;75.45;100119.13;4975521;28;20030;-50
2021/08/06 05:43:54;;;;;;;10.18;5.57;;;;;;;18.94;74.84;100129.47;4970884;28;20120;-50
2021/08/06 05:46:19;;;;;;;9.32;5.60;;;;;;;18.92;75.93;100119.88;4976767;28;20106;-47
2021/08/06 05:48:44;;;;;;;10.10;5.63;;;;;;;19.01;75.15;100123.09;4974072;28;20485;-50
2021/08/06 05:51:10;;;;;;;9.80;5.60;;;;;;;19.09;74.68;100129.91;4968007;28;20650;-48
2021/08/06 05:53:35;;;;;;;10.77;6.07;;;;;;;19.15;74.90;100127.91;4975216;28;20074;-51
2021/08/06 05:56:01;;;;;;;7.88;5.63;;;;;;;19.28;73.03;100131.84;4974242;28;20030;-47
2021/08/06 05:58:29;;;;;;;10.32;5.63;;;;;;;19.31;73.75;100131.75;4975511;28;20677;-48
2021/08/06 06:00:55;;;;;;;10.27;5.65;;;;;;;19.35;72.52;100128.09;4974817;28;20547;-47
2021/08/06 06:03:20;;;;;;;9.52;6.25;;;;;;;19.43;72.90;100123.41;4976630;28;20030;-50
2021/08/06 06:05:46;;;;;;;9.65;5.80;;;;;;;19.52;72.61;100124.06;4971024;28;20042;-47
2021/08/06 06:08:11;;;;;;;8.30;5.95;;;;;;;19.68;72.62;100127.88;4954683;28;20478;-47
2021/08/06 06:10:36;;;;;;;10.98;5.75;;;;;;;19.70;71.01;100133.97;4972682;28;20058;-49
2021/08/06 06:13:03;;;;;;;7.43;5.45;;;;;;;19.75;71.13;100134.69;4973915;28;20034;-52
2021/08/06 06:15:28;;;;;;;8.63;5.35;;;;;;;19.74;70.86;100141.75;4970865;28;20027;-47
2021/08/06 06:17:54;;;;;;;8.55;5.45;;;;;;;19.71;70.82;100133.03;4969653;28;20038;-47
2021/08/06 06:20:20;;;;;;;9.23;5.55;;;;;;;19.68;71.97;100143.75;4973857;28;20037;-48
2021/08/06 06:22:45;;;;;;;11.77;5.43;;;;;;;19.71;70.97;100141.84;4963780;28;20145;-49
2021/08/06 06:25:12;;;;;;;7.93;5.53;;;;;;;19.67;70.58;100148.16;4974634;28;20029;-48
2021/08/06 06:27:52;;;;;;;12.00;6.20;;;;;;;19.52;71.35;100142.56;4978165;28;20050;-49
2021/08/06 06:30:19;;;;;;;9.40;5.47;;;;;;;19.56;71.05;100154.75;4971171;28;20125;-47
2021/08/06 06:32:44;;;;;;;8.18;5.22;;;;;;;19.53;70.72;100152.19;4972380;28;20117;-47
2021/08/06 06:35:10;;;;;;;12.70;5.22;;;;;;;19.43;70.87;100146.34;4970856;28;20038;-47
2021/08/06 06:37:35;;;;;;;9.27;4.63;;;;;;;19.67;70.39;100153.44;4971205;28;20110;-47
2021/08/06 06:40:00;;;;;;;9.13;5.15;;;;;;;20.19;68.10;100147.13;4963974;28;20493;-48
2021/08/06 06:42:26;;;;;;;9.00;4.60;;;;;;;20.40;68.83;100153.44;4977988;28;20045;-50
2021/08/06 06:44:51;;;;;;;8.20;4.47;;;;;;;20.89;65.54;100148.84;4972272;28;20104;-47
2021/08/06 06:47:17;;;;;;;9.20;4.00;;;;;;;22.18;64.06;100153.94;4973997;28;20440;-48
2021/08/06 06:49:42;;;;;;;9.23;3.88;;;;;;;23.39;58.69;100149.84;4971404;28;20034;-49
2021/08/06 06:52:08;;;;;;;6.50;3.47;;;;;;;24.93;53.65;100151.31;4972098;28;20041;-47
2021/08/06 06:54:33;;;;;;;6.35;3.60;;;;;;;25.64;51.05;100156.06;4976917;28;20504;-47
2021/08/06 06:56:58;;;;;;;5.75;3.60;;;;;;;25.21;52.14;100144.38;4968841;28;20411;-48
2021/08/06 06:59:24;;;;;;;7.30;3.90;;;;;;;24.14;54.19;100154.81;4974947;28;20026;-46
2021/08/06 07:01:50;;;;;;;7.75;4.18;;;;;;;23.47;56.96;100150.38;4971378;28;20448;-50
2021/08/06 07:04:16;;;;;;;7.43;4.43;;;;;;;22.95;58.47;100158.25;4968782;28;20058;-49
2021/08/06 07:06:41;;;;;;;10.60;4.18;;;;;;;23.06;59.11;100149.72;4972571;28;20124;-47
2021/08/06 07:09:08;;;;;;;9.57;4.65;;;;;;;22.92;58.33;100153.09;4969358;28;20037;-47
2021/08/06 07:11:34;;;;;;;9.48;4.75;;;;;;;22.48;59.29;100171.09;4971043;28;20065;-50
2021/08/06 07:13:59;;;;;;;11.65;5.30;;;;;;;22.45;60.36;100165.06;4967204;28;20078;-48
2021/08/06 07:16:25;;;;;;;9.23;4.63;;;;;;;22.37;58.51;100168.09;4970941;28;20030;-47
2021/08/06 07:18:50;;;;;;;8.20;4.47;;;;;;;22.29;59.24;100166.72;4981543;28;20057;-47
2021/08/06 07:21:15;;;;;;;10.82;4.28;;;;;;;21.91;60.66;100166.59;4970990;28;20076;-49
2021/08/06 07:23:41;;;;;;;7.63;4.25;;;;;;;21.52;62.71;100163.06;4977661;28;20125;-47
2021/08/06 07:26:06;;;;;;;9.00;4.32;;;;;;;21.44;62.07;100158.06;4969045;28;20161;-46
2021/08/06 07:28:32;;;;;;;9.10;4.40;;;;;;;21.45;62.60;100168.63;4979383;28;20073;-46
2021/08/06 07:30:57;;;;;;;9.93;4.38;;;;;;;21.29;63.39;100158.69;4969967;28;20038;-50
2021/08/06 07:33:22;;;;;;;9.90;4.50;;;;;;;21.04;63.53;100164.97;4978923;28;20030;-48
2021/08/06 07:35:49;;;;;;;10.27;4.32;;;;;;;20.95;65.36;100162.72;4969230;28;20382;-47
2021/08/06 07:38:14;;;;;;;9.65;4.25;;;;;;;21.31;63.97;100164.81;4968891;28;20034;-47
2021/08/06 07:40:40;;;;;;;9.02;3.90;;;;;;;22.24;62.25;100170.44;4971329;28;20033;-48
2021/08/06 07:43:05;;;;;;;7.53;3.53;;;;;;;23.47;57.22;100163.66;4976453;28;20027;-50
2021/08/06 07:45:31;;;;;;;7.38;3.50;;;;;;;24.06;56.69;100154.34;4975095;28;20027;-47
2021/08/06 07:47:56;;;;;;;9.88;4.28;;;;;;;25.01;55.09;100161.53;4970245;28;20109;-48
2021/08/06 07:50:22;;;;;;;6.80;3.42;;;;;;;25.47;51.44;100159.72;4972960;28;20663;-54
2021/08/06 07:52:47;;;;;;;9.70;3.40;;;;;;;25.85;51.26;100158.31;4971240;28;20822;-47
2021/08/06 07:55:15;;;;;;;7.03;3.28;;;;;;;26.37;49.27;100160.44;4974744;28;20320;-47
2021/08/06 07:57:41;;;;;;;6.50;3.05;;;;;;;26.12;49.42;100162.88;4975966;28;20447;-47
2021/08/06 08:00:07;;;;;;;5.93;3.10;;;;;;;25.94;49.48;100158.69;4976940;28;20846;-49
2021/08/06 08:02:32;;;;;;;6.13;2.97;;;;;;;25.79;49.13;100165.84;4978380;28;20041;-49
2021/08/06 08:04:58;;;;;;;6.57;3.03;;;;;;;25.05;52.77;100157.75;4973108;28;20476;-46
2021/08/06 08:07:23;;;;;;;6.40;2.92;;;;;;;24.57;52.51;100170.22;4977158;28;20541;-47
2021/08/06 08:09:48;;;;;;;6.25;2.83;;;;;;;23.88;52.91;100161.50;4972086;28;20558;-46
2021/08/06 08:12:14;;;;;;;6.20;3.33;;;;;;;23.11;56.06;100157.50;4975091;28;20026;-47
2021/08/06 08:14:39;;;;;;;8.65;3.67;;;;;;;22.73;57.23;100157.56;4979341;28;20042;-48
2021/08/06 08:17:05;;;;;;;7.72;3.60;;;;;;;22.70;57.24;100162.97;4973612;28;20480;-47
2021/08/06 08:19:31;;;;;;;7.40;3.83;;;;;;;22.82;57.94;100156.25;4968112;28;20469;-50
2021/08/06 08:21:56;;;;;;;5.70;3.58;;;;;;;23.27;58.56;100163.75;4972099;28;20047;-48
2021/08/06 08:24:22;;;;;;;8.48;3.85;;;;;;;24.04;57.91;100165.06;4974775;28;20072;-51
2021/08/06 08:26:47;;;;;;;5.30;3.17;;;;;;;24.72;53.26;100165.81;4976532;28;20098;-47
2021/08/06 08:29:13;;;;;;;6.82;3.60;;;;;;;24.88;53.05;100161.34;4973684;28;20023;-47
2021/08/06 08:31:38;;;;;;;7.93;3.60;;;;;;;24.42;51.69;100157.72;4978840;28;20042;-47
2021/08/06 08:34:04;;;;;;;5.80;3.60;;;;;;;23.68;54.67;100162.53;4975932;28;20030;-47
2021/08/06 08:36:30;;;;;;;10.32;3.85;;;;;;;23.60;54.33;100164.75;4975550;28;20034;-47
2021/08/06 08:38:55;;;;;;;5.85;3.55;;;;;;;23.47;54.88;100163.66;4975759;28;20034;-48
2021/08/06 08:41:21;;;;;;;6.40;3.55;;;;;;;23.43;56.26;100159.38;4976429;28;20030;-48
2021/08/06 08:43:47;;;;;;;6.68;3.45;;;;;;;23.51;56.83;100159.03;4977930;28;20792;-47
2021/08/06 08:46:12;;;;;;;9.65;3.17;;;;;;;23.67;56.69;100163.47;4973049;28;20149;-47
2021/08/06 08:48:38;;;;;;;10.77;3.38;;;;;;;24.11;55.22;100162.94;4970157;28;20470;-50
2021/08/06 08:51:03;;;;;;;7.70;2.83;;;;;;;24.39;55.63;100160.56;4974061;28;20720;-48
2021/08/06 08:53:29;;;;;;;6.32;2.55;;;;;;;24.45;53.92;100162.03;4975895;28;20033;-48
2021/08/06 08:55:55;;;;;;;9.30;2.58;;;;;;;24.50;51.97;100168.81;4970450;28;20256;-48
2021/08/06 08:58:21;;;;;;;7.25;2.60;;;;;;;24.08;52.37;100169.31;4977954;28;20034;-48
2021/08/06 09:00:47;;;;;;;9.02;2.80;;;;;;;23.92;53.53;100170.19;4970566;28;20049;-49
2021/08/06 09:03:40;;;;;;;7.75;3.08;;;;;;;23.50;54.89;100173.28;4974254;28;20040;-49
2021/08/06 09:06:07;;;;;;;7.28;2.97;;;;;;;23.18;54.75;100165.06;4969043;28;20049;-49
2021/08/06 09:08:33;;;;;;;12.02;3.03;;;;;;;22.88;56.35;100172.75;4976647;28;20066;-50
2021/08/06 09:10:58;;;;;;;5.68;3.00;;;;;;;22.67;56.65;100176.41;4974470;28;20114;-47
2021/08/06 09:13:25;;;;;;;7.05;2.92;;;;;;;22.76;56.88;100185.75;4974841;28;20061;-47
2021/08/06 09:15:52;;;;;;;7.72;3.20;;;;;;;22.75;58.53;100192.88;4975700;28;20104;-48
2021/08/06 09:18:24;;;;;;;5.47;2.85;;;;;;;23.01;55.96;100184.53;4972040;28;20025;-46
2021/08/06 09:20:58;;;;;;;9.15;2.40;;;;;;;23.52;55.43;100182.03;4977644;28;20069;-49
2021/08/06 09:23:50;;;;;;;6.38;2.30;;;;;;;23.76;54.80;100186.97;4973454;28;20026;-48
2021/08/06 09:26:27;;;;;;;3.60;1.85;;;;;;;23.45;53.91;100174.34;4975573;28;20723;-48
2021/08/06 09:29:11;;;;;;;3.72;2.30;;;;;;;23.55;55.49;100180.06;4969815;28;20132;-48
2021/08/06 09:31:40;;;;;;;5.68;2.50;;;;;;;23.71;54.75;100185.50;4971643;28;20092;-49
2021/08/06 09:34:15;;;;;;;6.90;3.00;;;;;;;23.72;53.64;100173.91;4973750;28;20077;-48
2021/08/06 09:36:56;;;;;;;3.22;2.50;;;;;;;23.86;55.11;100180.22;4971050;28;20454;-47
2021/08/06 09:39:23;;;;;;;6.05;2.80;;;;;;;23.81;54.42;100186.72;4974084;28;20057;-49
2021/08/06 09:41:48;;;;;;;10.68;2.80;;;;;;;23.61;53.55;100195.72;4973009;28;20026;-49
2021/08/06 09:44:21;;;;;;;4.47;2.45;;;;;;;23.21;54.82;100185.34;4969924;28;20058;-49
2021/08/06 09:46:48;;;;;;;4.65;2.80;;;;;;;22.71;57.85;100198.38;4967725;28;20364;-46
2021/08/06 09:49:14;;;;;;;6.25;2.70;;;;;;;22.53;59.89;100198.31;4974100;28;20037;-48
2021/08/06 09:51:42;;;;;;;5.72;2.47;;;;;;;22.51;59.02;100200.16;4970803;28;20395;-52
2021/08/06 09:54:27;;;;;;;5.45;2.47;;;;;;;22.47;59.94;100201.25;4988400;28;20135;-47
2021/08/06 09:57:04;;;;;;;6.57;2.35;;;;;;;22.48;61.71;100197.66;4973346;28;20039;-48
2021/08/06 09:59:31;;;;;;;4.25;2.25;;;;;;;22.42;60.81;100202.41;4970516;28;20026;-46
2021/08/06 10:02:09;;;;;;;4.30;1.85;;;;;;;22.62;60.04;100197.03;4973231;28;20027;-47
2021/08/06 10:04:35;;;;;;;6.38;2.20;;;;;;;22.46;62.61;100196.00;4969460;28;20157;-47
2021/08/06 10:07:01;;;;;;;4.75;1.90;;;;;;;22.43;59.62;100196.16;4969134;28;20145;-47
2021/08/06 10:09:27;;;;;;;4.60;2.20;;;;;;;22.18;61.52;100186.66;4972159;28;20042;-48
2021/08/06 10:11:52;;;;;;;4.32;2.40;;;;;;;22.39;61.41;100187.44;4974714;28;20267;-47
2021/08/06 10:14:18;;;;;;;5.80;2.40;;;;;;;22.34;61.84;100188.59;4968412;28;21671;-47
2021/08/06 10:16:44;;;;;;;5.35;2.22;;;;;;;22.31;59.76;100181.66;4972683;28;20049;-50
2021/08/06 10:19:09;;;;;;;4.78;2.15;;;;;;;22.18;60.76;100193.75;4971433;28;20026;-50
2021/08/06 10:21:34;;;;;;;7.20;2.95;;;;;;;21.70;64.78;100194.09;4970465;28;20035;-50
2021/08/06 10:24:00;;;;;;;5.50;3.28;;;;;;;21.52;65.69;100209.00;4971309;28;20112;-48
2021/08/06 10:26:25;;;;;;;5.22;3.17;;;;;;;21.80;64.15;100201.59;4961343;28;20125;-49
2021/08/06 10:28:51;;;;;;;4.43;2.88;;;;;;;22.02;62.51;100195.34;4970565;28;20051;-47
2021/08/06 10:31:18;;;;;;;3.85;2.60;;;;;;;22.26;62.88;100200.44;4969601;28;20125;-50
2021/08/06 10:34:02;;;;;;;3.63;2.13;;;;;;;22.45;61.85;100189.81;4974227;28;20049;-47
2021/08/06 10:36:47;;;;;;;4.43;2.13;;;;;;;22.52;61.32;100207.22;4973653;28;20586;-47
2021/08/06 10:39:41;;;;;;;5.03;1.70;;;;;;;22.51;61.93;100207.28;4976660;28;20034;-47
2021/08/06 10:42:06;;;;;;;4.80;1.70;;;;;;;22.64;61.05;100201.31;4971839;28;20050;-51
2021/08/06 10:44:53;;;;;;;2.33;1.50;;;;;;;22.82;60.48;100186.34;4972767;28;20045;-49
2021/08/06 10:47:18;;;;;;;2.33;1.38;;;;;;;23.08;59.04;100197.50;4967994;28;20479;-50
2021/08/06 10:50:13;;;;;;;2.60;1.40;;;;;;;23.05;60.67;100191.41;4971845;28;20033;-49
2021/08/06 10:52:39;;;;;;;1.63;1.30;;;;;;;23.21;58.67;100195.97;4968817;28;20382;-49
2021/08/06 10:55:16;;;;;;;7.18;1.20;;;;;;;23.40;59.33;100197.66;4969394;28;20495;-47
2021/08/06 10:57:41;;;;;;;2.75;1.60;;;;;;;23.52;57.24;100192.69;4971713;28;20731;-47
2021/08/06 11:00:07;;;;;;;2.90;1.40;;;;;;;23.48;57.46;100197.31;4973156;28;20398;-51
2021/08/06 11:02:37;;;;;;;6.25;1.30;;;;;;;23.39;57.17;100208.38;4975176;28;20057;-48
2021/08/06 11:05:33;;;;;;;4.00;1.80;;;;;;;23.14;57.47;100215.84;4971392;28;20347;-48
2021/08/06 11:08:00;;;;;;;3.58;2.22;;;;;;;23.13;57.55;100204.34;4971022;28;20026;-48
2021/08/06 11:10:49;;;;;;;3.95;2.70;;;;;;;23.17;57.50;100205.06;4967182;28;20042;-50
2021/08/06 11:13:53;;;;;;;8.38;2.83;;;;;;;23.31;58.15;100198.09;4970585;28;20026;-49
2021/08/06 11:16:19;;;;;;;6.93;2.80;;;;;;;23.48;56.29;100196.47;4922607;28;20031;-46
2021/08/06 11:18:46;;;;;;;4.68;2.70;;;;;;;23.30;59.36;100191.06;4928554;28;20035;-50
2021/08/06 11:21:12;;;;;;;4.13;2.70;;;;;;;23.08;59.04;100193.06;4949312;28;20120;-47
2021/08/06 11:23:38;;;;;;;21.67;4.00;;;;;;;22.40;64.67;100217.53;4968695;28;20164;-50
2021/08/06 11:26:11;;;;;;;7.43;3.50;;;;;;;21.99;67.02;100207.00;4973464;28;20478;-50